sensor_id;sensor_type;location;lat;lon;timestamp;P1;durP1;ratioP1;P2;durP2;ratioP2
7324;SDS011;3703;48.016;7.802;2022-11-15T00:02:08;5.00;;;3.80;;
7324;SDS011;3703;48.016;7.802;2022-11-15T00:04:56;5.23;;;4.17;;
7324;SDS011;3703;48.016;7.802;2022-11-15T00:07:45;4.50;;;3.90;;
7324;SDS011;3703;48.016;7.802;2022-11-15T00:10:33;5.57;;;3.90;;
7324;SDS011;3703;48.016;7.802;2022-11-15T00:13:20;5.40;;;4.00;;
7324;SDS011;3703;48.016;7.802;2022-11-15T00:16:08;5.53;;;3.50;;
7324;SDS011;3703;48.016;7.802;2022-11-15T00:18:56;6.53;;;4.70;;
7324;SDS011;3703;48.016;7.802;2022-11-15T00:21:44;20.07;;;11.10;;
7324;SDS011;3703;48.016;7.802;2022-11-15T00:24:33;13.23;;;7.97;;
7324;SDS011;3703;48.016;7.802;2022-11-15T00:27:23;11.23;;;7.00;;
7324;SDS011;3703;48.016;7.802;2022-11-15T00:30:11;13.57;;;8.07;;
7324;SDS011;3703;48.016;7.802;2022-11-15T00:33:01;16.67;;;8.43;;
7324;SDS011;3703;48.016;7.802;2022-11-15T00:35:49;9.87;;;6.53;;
7324;SDS011;3703;48.016;7.802;2022-11-15T00:38:38;8.10;;;5.00;;
7324;SDS011;3703;48.016;7.802;2022-11-15T00:41:27;8.13;;;5.20;;
7324;SDS011;3703;48.016;7.802;2022-11-15T00:44:15;7.13;;;4.50;;
7324;SDS011;3703;48.016;7.802;2022-11-15T00:47:02;7.33;;;4.10;;
7324;SDS011;3703;48.016;7.802;2022-11-15T00:49:50;6.93;;;3.87;;
7324;SDS011;3703;48.016;7.802;2022-11-15T00:52:38;6.03;;;4.20;;
7324;SDS011;3703;48.016;7.802;2022-11-15T00:55:25;6.50;;;4.30;;
7324;SDS011;3703;48.016;7.802;2022-11-15T00:58:14;6.20;;;3.90;;
7324;SDS011;3703;48.016;7.802;2022-11-15T01:01:06;6.87;;;4.27;;
7324;SDS011;3703;48.016;7.802;2022-11-15T01:03:55;4.83;;;3.60;;
7324;SDS011;3703;48.016;7.802;2022-11-15T01:06:44;4.87;;;3.37;;
7324;SDS011;3703;48.016;7.802;2022-11-15T01:09:31;5.23;;;3.70;;
7324;SDS011;3703;48.016;7.802;2022-11-15T01:12:19;8.23;;;3.80;;
7324;SDS011;3703;48.016;7.802;2022-11-15T01:15:08;5.53;;;3.57;;
7324;SDS011;3703;48.016;7.802;2022-11-15T01:17:56;4.33;;;3.40;;
7324;SDS011;3703;48.016;7.802;2022-11-15T01:20:44;5.90;;;3.63;;
7324;SDS011;3703;48.016;7.802;2022-11-15T01:23:31;5.60;;;3.80;;
7324;SDS011;3703;48.016;7.802;2022-11-15T01:26:19;5.33;;;3.80;;
7324;SDS011;3703;48.016;7.802;2022-11-15T01:29:07;5.53;;;3.50;;
7324;SDS011;3703;48.016;7.802;2022-11-15T01:31:56;5.50;;;3.40;;
7324;SDS011;3703;48.016;7.802;2022-11-15T01:34:44;4.60;;;3.30;;
7324;SDS011;3703;48.016;7.802;2022-11-15T01:37:31;4.67;;;3.47;;
7324;SDS011;3703;48.016;7.802;2022-11-15T01:40:19;5.50;;;3.60;;
7324;SDS011;3703;48.016;7.802;2022-11-15T01:43:19;6.53;;;4.10;;
7324;SDS011;3703;48.016;7.802;2022-11-15T01:46:17;11.93;;;4.17;;
7324;SDS011;3703;48.016;7.802;2022-11-15T01:49:19;7.33;;;4.73;;
7324;SDS011;3703;48.016;7.802;2022-11-15T01:52:09;6.40;;;4.23;;
7324;SDS011;3703;48.016;7.802;2022-11-15T01:55:02;5.53;;;4.20;;
7324;SDS011;3703;48.016;7.802;2022-11-15T01:57:55;5.53;;;3.80;;
7324;SDS011;3703;48.016;7.802;2022-11-15T02:00:46;6.33;;;4.20;;
7324;SDS011;3703;48.016;7.802;2022-11-15T02:03:37;8.03;;;4.73;;
7324;SDS011;3703;48.016;7.802;2022-11-15T02:06:34;3.43;;;3.13;;
7324;SDS011;3703;48.016;7.802;2022-11-15T02:09:22;3.80;;;2.97;;
7324;SDS011;3703;48.016;7.802;2022-11-15T02:12:10;4.33;;;3.23;;
7324;SDS011;3703;48.016;7.802;2022-11-15T02:15:02;9.17;;;3.47;;
7324;SDS011;3703;48.016;7.802;2022-11-15T02:17:56;3.77;;;2.77;;
7324;SDS011;3703;48.016;7.802;2022-11-15T02:21:09;3.40;;;3.03;;
7324;SDS011;3703;48.016;7.802;2022-11-15T02:24:20;3.73;;;3.10;;
7324;SDS011;3703;48.016;7.802;2022-11-15T02:27:57;4.57;;;3.07;;
7324;SDS011;3703;48.016;7.802;2022-11-15T02:31:15;2.97;;;2.67;;
7324;SDS011;3703;48.016;7.802;2022-11-15T02:34:16;5.77;;;3.57;;
7324;SDS011;3703;48.016;7.802;2022-11-15T02:37:15;4.23;;;3.20;;
7324;SDS011;3703;48.016;7.802;2022-11-15T02:40:10;5.67;;;3.33;;
7324;SDS011;3703;48.016;7.802;2022-11-15T02:43:07;3.77;;;2.77;;
7324;SDS011;3703;48.016;7.802;2022-11-15T02:46:18;3.63;;;3.03;;
7324;SDS011;3703;48.016;7.802;2022-11-15T02:49:32;4.40;;;2.60;;
7324;SDS011;3703;48.016;7.802;2022-11-15T02:52:22;3.50;;;2.90;;
7324;SDS011;3703;48.016;7.802;2022-11-15T02:55:28;3.60;;;2.83;;
7324;SDS011;3703;48.016;7.802;2022-11-15T02:58:36;3.50;;;2.67;;
7324;SDS011;3703;48.016;7.802;2022-11-15T03:01:59;4.43;;;2.70;;
7324;SDS011;3703;48.016;7.802;2022-11-15T03:05:04;3.60;;;2.80;;
7324;SDS011;3703;48.016;7.802;2022-11-15T03:08:05;3.80;;;2.77;;
7324;SDS011;3703;48.016;7.802;2022-11-15T03:10:59;4.03;;;3.30;;
7324;SDS011;3703;48.016;7.802;2022-11-15T03:13:56;4.50;;;2.80;;
7324;SDS011;3703;48.016;7.802;2022-11-15T03:16:47;4.63;;;3.50;;
7324;SDS011;3703;48.016;7.802;2022-11-15T03:19:43;3.10;;;2.80;;
7324;SDS011;3703;48.016;7.802;2022-11-15T03:22:33;3.43;;;2.80;;
7324;SDS011;3703;48.016;7.802;2022-11-15T03:25:26;3.03;;;2.70;;
7324;SDS011;3703;48.016;7.802;2022-11-15T03:28:18;3.57;;;2.63;;
7324;SDS011;3703;48.016;7.802;2022-11-15T03:31:12;3.37;;;3.00;;
7324;SDS011;3703;48.016;7.802;2022-11-15T03:34:22;3.33;;;3.00;;
7324;SDS011;3703;48.016;7.802;2022-11-15T03:37:16;3.20;;;2.73;;
7324;SDS011;3703;48.016;7.802;2022-11-15T03:40:08;3.73;;;3.13;;
7324;SDS011;3703;48.016;7.802;2022-11-15T03:42:59;4.60;;;3.07;;
7324;SDS011;3703;48.016;7.802;2022-11-15T03:45:54;7.60;;;3.40;;
7324;SDS011;3703;48.016;7.802;2022-11-15T03:48:49;7.20;;;3.97;;
7324;SDS011;3703;48.016;7.802;2022-11-15T03:51:40;6.97;;;3.87;;
7324;SDS011;3703;48.016;7.802;2022-11-15T03:54:29;19.30;;;9.23;;
7324;SDS011;3703;48.016;7.802;2022-11-15T03:57:17;7.00;;;4.77;;
7324;SDS011;3703;48.016;7.802;2022-11-15T04:00:05;14.80;;;8.60;;
7324;SDS011;3703;48.016;7.802;2022-11-15T04:02:54;20.33;;;10.50;;
7324;SDS011;3703;48.016;7.802;2022-11-15T04:05:42;13.43;;;7.60;;
7324;SDS011;3703;48.016;7.802;2022-11-15T04:08:29;11.13;;;5.53;;
7324;SDS011;3703;48.016;7.802;2022-11-15T04:11:18;4.80;;;4.33;;
7324;SDS011;3703;48.016;7.802;2022-11-15T04:14:06;6.43;;;4.00;;
7324;SDS011;3703;48.016;7.802;2022-11-15T04:16:54;5.57;;;3.50;;
7324;SDS011;3703;48.016;7.802;2022-11-15T04:19:41;6.70;;;3.77;;
7324;SDS011;3703;48.016;7.802;2022-11-15T04:22:46;4.87;;;3.70;;
7324;SDS011;3703;48.016;7.802;2022-11-15T04:25:52;5.10;;;3.23;;
7324;SDS011;3703;48.016;7.802;2022-11-15T04:28:43;4.33;;;3.20;;
7324;SDS011;3703;48.016;7.802;2022-11-15T04:31:45;8.40;;;5.17;;
7324;SDS011;3703;48.016;7.802;2022-11-15T04:34:32;4.83;;;3.40;;
7324;SDS011;3703;48.016;7.802;2022-11-15T04:37:20;7.37;;;4.50;;
7324;SDS011;3703;48.016;7.802;2022-11-15T04:40:08;4.50;;;3.33;;
7324;SDS011;3703;48.016;7.802;2022-11-15T04:42:57;3.83;;;3.07;;
7324;SDS011;3703;48.016;7.802;2022-11-15T04:45:46;10.20;;;5.53;;
7324;SDS011;3703;48.016;7.802;2022-11-15T04:48:33;5.53;;;3.10;;
7324;SDS011;3703;48.016;7.802;2022-11-15T04:51:21;5.37;;;3.87;;
7324;SDS011;3703;48.016;7.802;2022-11-15T04:54:09;4.93;;;3.47;;
7324;SDS011;3703;48.016;7.802;2022-11-15T04:56:56;4.23;;;3.50;;
7324;SDS011;3703;48.016;7.802;2022-11-15T04:59:44;4.67;;;3.20;;
7324;SDS011;3703;48.016;7.802;2022-11-15T05:02:33;4.33;;;3.20;;
7324;SDS011;3703;48.016;7.802;2022-11-15T05:05:38;4.50;;;3.10;;
7324;SDS011;3703;48.016;7.802;2022-11-15T05:08:26;4.23;;;3.50;;
7324;SDS011;3703;48.016;7.802;2022-11-15T05:11:13;5.30;;;3.07;;
7324;SDS011;3703;48.016;7.802;2022-11-15T05:14:01;5.30;;;3.23;;
7324;SDS011;3703;48.016;7.802;2022-11-15T05:16:48;5.00;;;3.97;;
7324;SDS011;3703;48.016;7.802;2022-11-15T05:19:37;5.80;;;3.73;;
7324;SDS011;3703;48.016;7.802;2022-11-15T05:22:25;24.03;;;10.90;;
7324;SDS011;3703;48.016;7.802;2022-11-15T05:25:13;4.87;;;3.73;;
7324;SDS011;3703;48.016;7.802;2022-11-15T05:28:01;3.90;;;3.17;;
7324;SDS011;3703;48.016;7.802;2022-11-15T05:30:49;4.00;;;2.70;;
7324;SDS011;3703;48.016;7.802;2022-11-15T05:33:37;5.43;;;3.60;;
7324;SDS011;3703;48.016;7.802;2022-11-15T05:36:29;3.77;;;3.37;;
7324;SDS011;3703;48.016;7.802;2022-11-15T05:39:22;4.00;;;3.33;;
7324;SDS011;3703;48.016;7.802;2022-11-15T05:42:11;4.87;;;3.30;;
7324;SDS011;3703;48.016;7.802;2022-11-15T05:45:01;3.57;;;3.20;;
7324;SDS011;3703;48.016;7.802;2022-11-15T05:47:52;4.90;;;3.33;;
7324;SDS011;3703;48.016;7.802;2022-11-15T05:50:42;3.30;;;2.93;;
7324;SDS011;3703;48.016;7.802;2022-11-15T05:53:35;4.93;;;3.90;;
7324;SDS011;3703;48.016;7.802;2022-11-15T05:56:23;7.43;;;5.47;;
7324;SDS011;3703;48.016;7.802;2022-11-15T05:59:12;4.97;;;3.57;;
7324;SDS011;3703;48.016;7.802;2022-11-15T06:02:00;4.30;;;3.07;;
7324;SDS011;3703;48.016;7.802;2022-11-15T06:04:47;3.43;;;2.87;;
7324;SDS011;3703;48.016;7.802;2022-11-15T06:07:35;4.53;;;3.70;;
7324;SDS011;3703;48.016;7.802;2022-11-15T06:10:24;4.90;;;3.27;;
7324;SDS011;3703;48.016;7.802;2022-11-15T06:13:12;5.23;;;3.80;;
7324;SDS011;3703;48.016;7.802;2022-11-15T06:15:59;3.37;;;3.07;;
7324;SDS011;3703;48.016;7.802;2022-11-15T06:18:47;4.93;;;3.00;;
7324;SDS011;3703;48.016;7.802;2022-11-15T06:21:35;4.43;;;3.17;;
7324;SDS011;3703;48.016;7.802;2022-11-15T06:24:23;4.50;;;3.03;;
7324;SDS011;3703;48.016;7.802;2022-11-15T06:27:12;5.43;;;3.70;;
7324;SDS011;3703;48.016;7.802;2022-11-15T06:29:59;4.50;;;4.00;;
7324;SDS011;3703;48.016;7.802;2022-11-15T06:32:47;3.70;;;3.30;;
7324;SDS011;3703;48.016;7.802;2022-11-15T06:35:35;6.60;;;5.03;;
7324;SDS011;3703;48.016;7.802;2022-11-15T06:38:23;6.50;;;4.60;;
7324;SDS011;3703;48.016;7.802;2022-11-15T06:41:11;10.37;;;7.80;;
7324;SDS011;3703;48.016;7.802;2022-11-15T06:44:01;10.03;;;6.07;;
7324;SDS011;3703;48.016;7.802;2022-11-15T06:46:49;6.50;;;4.47;;
7324;SDS011;3703;48.016;7.802;2022-11-15T06:49:37;9.10;;;5.20;;
7324;SDS011;3703;48.016;7.802;2022-11-15T06:52:24;6.70;;;4.80;;
7324;SDS011;3703;48.016;7.802;2022-11-15T06:55:12;6.23;;;5.13;;
7324;SDS011;3703;48.016;7.802;2022-11-15T06:58:00;7.80;;;5.50;;
7324;SDS011;3703;48.016;7.802;2022-11-15T07:00:49;5.80;;;4.30;;
7324;SDS011;3703;48.016;7.802;2022-11-15T07:03:36;6.10;;;4.60;;
7324;SDS011;3703;48.016;7.802;2022-11-15T07:06:26;7.37;;;5.00;;
7324;SDS011;3703;48.016;7.802;2022-11-15T07:09:14;6.33;;;4.67;;
7324;SDS011;3703;48.016;7.802;2022-11-15T07:12:01;6.37;;;4.60;;
7324;SDS011;3703;48.016;7.802;2022-11-15T07:14:49;5.50;;;4.33;;
7324;SDS011;3703;48.016;7.802;2022-11-15T07:17:38;7.57;;;4.67;;
7324;SDS011;3703;48.016;7.802;2022-11-15T07:20:26;5.27;;;4.10;;
7324;SDS011;3703;48.016;7.802;2022-11-15T07:23:14;5.67;;;3.90;;
7324;SDS011;3703;48.016;7.802;2022-11-15T07:26:01;7.30;;;3.77;;
7324;SDS011;3703;48.016;7.802;2022-11-15T07:28:49;4.93;;;3.40;;
7324;SDS011;3703;48.016;7.802;2022-11-15T07:31:36;5.23;;;4.20;;
7324;SDS011;3703;48.016;7.802;2022-11-15T07:34:25;7.17;;;4.30;;
7324;SDS011;3703;48.016;7.802;2022-11-15T07:37:13;5.67;;;5.07;;
7324;SDS011;3703;48.016;7.802;2022-11-15T07:40:02;7.47;;;4.50;;
7324;SDS011;3703;48.016;7.802;2022-11-15T07:42:50;22.23;;;10.83;;
7324;SDS011;3703;48.016;7.802;2022-11-15T07:45:41;16.07;;;9.40;;
7324;SDS011;3703;48.016;7.802;2022-11-15T07:48:30;16.33;;;8.50;;
7324;SDS011;3703;48.016;7.802;2022-11-15T07:51:19;18.50;;;10.63;;
7324;SDS011;3703;48.016;7.802;2022-11-15T07:54:07;56.77;;;29.60;;
7324;SDS011;3703;48.016;7.802;2022-11-15T07:56:54;38.60;;;25.03;;
7324;SDS011;3703;48.016;7.802;2022-11-15T07:59:42;23.80;;;14.20;;
7324;SDS011;3703;48.016;7.802;2022-11-15T08:02:30;21.90;;;12.50;;
7324;SDS011;3703;48.016;7.802;2022-11-15T08:05:17;15.43;;;9.03;;
7324;SDS011;3703;48.016;7.802;2022-11-15T08:08:07;11.33;;;7.13;;
7324;SDS011;3703;48.016;7.802;2022-11-15T08:10:57;10.80;;;6.70;;
7324;SDS011;3703;48.016;7.802;2022-11-15T08:13:44;9.43;;;6.60;;
7324;SDS011;3703;48.016;7.802;2022-11-15T08:16:32;8.03;;;6.43;;
7324;SDS011;3703;48.016;7.802;2022-11-15T08:19:20;11.03;;;6.10;;
7324;SDS011;3703;48.016;7.802;2022-11-15T08:22:07;9.67;;;5.63;;
7324;SDS011;3703;48.016;7.802;2022-11-15T08:24:56;6.27;;;4.70;;
7324;SDS011;3703;48.016;7.802;2022-11-15T08:27:44;5.63;;;4.23;;
7324;SDS011;3703;48.016;7.802;2022-11-15T08:30:34;5.13;;;4.50;;
7324;SDS011;3703;48.016;7.802;2022-11-15T08:33:24;5.20;;;4.20;;
7324;SDS011;3703;48.016;7.802;2022-11-15T08:36:12;6.00;;;3.83;;
7324;SDS011;3703;48.016;7.802;2022-11-15T08:39:01;5.10;;;4.10;;
7324;SDS011;3703;48.016;7.802;2022-11-15T08:41:51;5.97;;;4.47;;
7324;SDS011;3703;48.016;7.802;2022-11-15T08:44:39;4.57;;;3.73;;
7324;SDS011;3703;48.016;7.802;2022-11-15T08:47:26;5.57;;;3.77;;
7324;SDS011;3703;48.016;7.802;2022-11-15T08:50:14;5.83;;;4.23;;
7324;SDS011;3703;48.016;7.802;2022-11-15T08:53:05;7.07;;;4.83;;
7324;SDS011;3703;48.016;7.802;2022-11-15T08:55:54;8.13;;;6.60;;
7324;SDS011;3703;48.016;7.802;2022-11-15T08:58:43;9.77;;;7.07;;
7324;SDS011;3703;48.016;7.802;2022-11-15T09:01:30;8.30;;;6.43;;
7324;SDS011;3703;48.016;7.802;2022-11-15T09:04:18;9.37;;;6.83;;
7324;SDS011;3703;48.016;7.802;2022-11-15T09:07:06;9.00;;;5.67;;
7324;SDS011;3703;48.016;7.802;2022-11-15T09:09:53;7.80;;;5.70;;
7324;SDS011;3703;48.016;7.802;2022-11-15T09:12:41;6.40;;;5.20;;
7324;SDS011;3703;48.016;7.802;2022-11-15T09:15:30;5.90;;;4.93;;
7324;SDS011;3703;48.016;7.802;2022-11-15T09:18:17;8.00;;;4.70;;
7324;SDS011;3703;48.016;7.802;2022-11-15T09:21:07;7.57;;;5.00;;
7324;SDS011;3703;48.016;7.802;2022-11-15T09:23:56;5.57;;;4.37;;
7324;SDS011;3703;48.016;7.802;2022-11-15T09:26:44;5.90;;;4.50;;
7324;SDS011;3703;48.016;7.802;2022-11-15T09:29:32;4.63;;;3.50;;
7324;SDS011;3703;48.016;7.802;2022-11-15T09:32:20;5.23;;;3.80;;
7324;SDS011;3703;48.016;7.802;2022-11-15T09:35:08;4.20;;;3.80;;
7324;SDS011;3703;48.016;7.802;2022-11-15T09:37:57;5.27;;;3.97;;
7324;SDS011;3703;48.016;7.802;2022-11-15T09:40:45;4.63;;;4.03;;
7324;SDS011;3703;48.016;7.802;2022-11-15T09:43:42;6.47;;;3.97;;
7324;SDS011;3703;48.016;7.802;2022-11-15T09:46:42;4.80;;;3.80;;
7324;SDS011;3703;48.016;7.802;2022-11-15T09:49:38;6.53;;;5.23;;
7324;SDS011;3703;48.016;7.802;2022-11-15T09:52:26;5.07;;;4.57;;
7324;SDS011;3703;48.016;7.802;2022-11-15T09:55:14;5.70;;;4.43;;
7324;SDS011;3703;48.016;7.802;2022-11-15T09:58:15;7.10;;;5.00;;
7324;SDS011;3703;48.016;7.802;2022-11-15T10:01:11;5.80;;;4.10;;
7324;SDS011;3703;48.016;7.802;2022-11-15T10:04:04;5.30;;;4.17;;
7324;SDS011;3703;48.016;7.802;2022-11-15T10:06:54;5.53;;;4.57;;
7324;SDS011;3703;48.016;7.802;2022-11-15T10:09:53;6.90;;;4.43;;
7324;SDS011;3703;48.016;7.802;2022-11-15T10:12:47;6.03;;;4.20;;
7324;SDS011;3703;48.016;7.802;2022-11-15T10:15:38;7.63;;;4.17;;
7324;SDS011;3703;48.016;7.802;2022-11-15T10:18:27;5.70;;;4.40;;
7324;SDS011;3703;48.016;7.802;2022-11-15T10:21:23;5.83;;;4.40;;
7324;SDS011;3703;48.016;7.802;2022-11-15T10:24:19;6.30;;;5.23;;
7324;SDS011;3703;48.016;7.802;2022-11-15T10:27:14;6.23;;;4.63;;
7324;SDS011;3703;48.016;7.802;2022-11-15T10:30:03;5.37;;;4.13;;
7324;SDS011;3703;48.016;7.802;2022-11-15T10:32:57;5.60;;;4.23;;
7324;SDS011;3703;48.016;7.802;2022-11-15T10:39:11;6.93;;;4.33;;
7324;SDS011;3703;48.016;7.802;2022-11-15T10:42:14;7.63;;;4.27;;
7324;SDS011;3703;48.016;7.802;2022-11-15T10:45:08;8.47;;;4.53;;
7324;SDS011;3703;48.016;7.802;2022-11-15T10:48:20;5.37;;;4.10;;
7324;SDS011;3703;48.016;7.802;2022-11-15T10:51:18;7.00;;;4.67;;
7324;SDS011;3703;48.016;7.802;2022-11-15T10:54:11;7.57;;;4.20;;
7324;SDS011;3703;48.016;7.802;2022-11-15T10:57:04;5.60;;;4.17;;
7324;SDS011;3703;48.016;7.802;2022-11-15T10:59:56;5.97;;;3.80;;
7324;SDS011;3703;48.016;7.802;2022-11-15T11:02:55;5.50;;;3.77;;
7324;SDS011;3703;48.016;7.802;2022-11-15T11:05:45;6.20;;;3.80;;
7324;SDS011;3703;48.016;7.802;2022-11-15T11:08:33;4.47;;;3.50;;
7324;SDS011;3703;48.016;7.802;2022-11-15T11:11:20;5.97;;;3.43;;
7324;SDS011;3703;48.016;7.802;2022-11-15T11:14:11;5.33;;;3.90;;
7324;SDS011;3703;48.016;7.802;2022-11-15T11:17:03;4.40;;;3.67;;
7324;SDS011;3703;48.016;7.802;2022-11-15T11:20:01;4.57;;;3.90;;
7324;SDS011;3703;48.016;7.802;2022-11-15T11:23:14;5.53;;;4.37;;
7324;SDS011;3703;48.016;7.802;2022-11-15T11:26:19;5.77;;;3.60;;
7324;SDS011;3703;48.016;7.802;2022-11-15T11:29:28;5.57;;;4.10;;
7324;SDS011;3703;48.016;7.802;2022-11-15T11:35:59;6.33;;;4.20;;
7324;SDS011;3703;48.016;7.802;2022-11-15T11:39:02;4.80;;;3.63;;
7324;SDS011;3703;48.016;7.802;2022-11-15T11:42:07;5.67;;;3.70;;
7324;SDS011;3703;48.016;7.802;2022-11-15T11:45:15;6.33;;;4.27;;
7324;SDS011;3703;48.016;7.802;2022-11-15T11:48:35;7.87;;;4.90;;
7324;SDS011;3703;48.016;7.802;2022-11-15T11:51:28;5.00;;;4.13;;
7324;SDS011;3703;48.016;7.802;2022-11-15T11:54:23;5.60;;;4.63;;
7324;SDS011;3703;48.016;7.802;2022-11-15T11:57:23;5.03;;;4.30;;
7324;SDS011;3703;48.016;7.802;2022-11-15T12:00:20;5.37;;;4.23;;
7324;SDS011;3703;48.016;7.802;2022-11-15T12:03:11;6.90;;;4.63;;
7324;SDS011;3703;48.016;7.802;2022-11-15T12:06:11;5.33;;;3.90;;
7324;SDS011;3703;48.016;7.802;2022-11-15T12:09:12;5.00;;;4.23;;
7324;SDS011;3703;48.016;7.802;2022-11-15T12:12:05;5.77;;;3.77;;
7324;SDS011;3703;48.016;7.802;2022-11-15T12:14:59;5.93;;;4.07;;
7324;SDS011;3703;48.016;7.802;2022-11-15T12:17:51;5.40;;;3.73;;
7324;SDS011;3703;48.016;7.802;2022-11-15T12:20:41;5.00;;;3.83;;
7324;SDS011;3703;48.016;7.802;2022-11-15T12:23:43;5.60;;;4.03;;
7324;SDS011;3703;48.016;7.802;2022-11-15T12:26:38;4.90;;;4.10;;
7324;SDS011;3703;48.016;7.802;2022-11-15T12:29:33;5.07;;;3.90;;
7324;SDS011;3703;48.016;7.802;2022-11-15T12:32:26;5.93;;;4.30;;
7324;SDS011;3703;48.016;7.802;2022-11-15T12:35:22;8.37;;;5.73;;
7324;SDS011;3703;48.016;7.802;2022-11-15T12:38:14;7.20;;;5.17;;
7324;SDS011;3703;48.016;7.802;2022-11-15T12:41:43;7.20;;;6.13;;
7324;SDS011;3703;48.016;7.802;2022-11-15T12:44:57;7.93;;;6.50;;
7324;SDS011;3703;48.016;7.802;2022-11-15T12:47:45;8.63;;;5.97;;
7324;SDS011;3703;48.016;7.802;2022-11-15T12:53:43;9.00;;;5.70;;
7324;SDS011;3703;48.016;7.802;2022-11-15T12:56:32;10.20;;;5.53;;
7324;SDS011;3703;48.016;7.802;2022-11-15T12:59:47;7.83;;;5.77;;
7324;SDS011;3703;48.016;7.802;2022-11-15T13:02:36;5.60;;;4.40;;
7324;SDS011;3703;48.016;7.802;2022-11-15T13:08:59;10.37;;;7.50;;
7324;SDS011;3703;48.016;7.802;2022-11-15T13:11:50;10.60;;;8.83;;
7324;SDS011;3703;48.016;7.802;2022-11-15T13:14:42;9.97;;;6.83;;
7324;SDS011;3703;48.016;7.802;2022-11-15T13:17:40;6.43;;;5.10;;
7324;SDS011;3703;48.016;7.802;2022-11-15T13:20:30;6.27;;;5.33;;
7324;SDS011;3703;48.016;7.802;2022-11-15T13:23:20;8.97;;;7.10;;
7324;SDS011;3703;48.016;7.802;2022-11-15T13:26:10;10.07;;;6.60;;
7324;SDS011;3703;48.016;7.802;2022-11-15T13:29:03;17.33;;;11.40;;
7324;SDS011;3703;48.016;7.802;2022-11-15T13:31:59;12.33;;;8.00;;
7324;SDS011;3703;48.016;7.802;2022-11-15T13:34:48;11.03;;;7.57;;
7324;SDS011;3703;48.016;7.802;2022-11-15T13:37:38;10.17;;;7.07;;
7324;SDS011;3703;48.016;7.802;2022-11-15T13:40:26;12.57;;;7.47;;
7324;SDS011;3703;48.016;7.802;2022-11-15T13:43:19;10.63;;;7.10;;
7324;SDS011;3703;48.016;7.802;2022-11-15T13:46:17;10.60;;;6.90;;
7324;SDS011;3703;48.016;7.802;2022-11-15T13:49:08;8.00;;;6.33;;
7324;SDS011;3703;48.016;7.802;2022-11-15T13:51:57;7.57;;;5.80;;
7324;SDS011;3703;48.016;7.802;2022-11-15T13:54:50;7.53;;;5.30;;
7324;SDS011;3703;48.016;7.802;2022-11-15T13:57:44;7.17;;;5.40;;
7324;SDS011;3703;48.016;7.802;2022-11-15T14:00:37;9.67;;;6.00;;
7324;SDS011;3703;48.016;7.802;2022-11-15T14:03:29;9.10;;;6.03;;
7324;SDS011;3703;48.016;7.802;2022-11-15T14:06:19;9.97;;;6.63;;
7324;SDS011;3703;48.016;7.802;2022-11-15T14:12:23;8.83;;;5.50;;
7324;SDS011;3703;48.016;7.802;2022-11-15T14:15:24;7.03;;;5.73;;
7324;SDS011;3703;48.016;7.802;2022-11-15T14:21:32;8.73;;;6.43;;
7324;SDS011;3703;48.016;7.802;2022-11-15T14:24:21;8.60;;;6.20;;
7324;SDS011;3703;48.016;7.802;2022-11-15T14:27:19;10.93;;;7.80;;
7324;SDS011;3703;48.016;7.802;2022-11-15T14:30:13;10.47;;;8.23;;
7324;SDS011;3703;48.016;7.802;2022-11-15T14:33:11;8.17;;;6.00;;
7324;SDS011;3703;48.016;7.802;2022-11-15T14:36:12;14.33;;;9.27;;
7324;SDS011;3703;48.016;7.802;2022-11-15T14:39:01;10.10;;;7.03;;
7324;SDS011;3703;48.016;7.802;2022-11-15T14:41:50;7.33;;;6.13;;
7324;SDS011;3703;48.016;7.802;2022-11-15T14:44:38;14.53;;;8.63;;
7324;SDS011;3703;48.016;7.802;2022-11-15T14:47:25;9.50;;;6.43;;
7324;SDS011;3703;48.016;7.802;2022-11-15T14:50:14;10.73;;;7.40;;
7324;SDS011;3703;48.016;7.802;2022-11-15T14:53:05;9.57;;;8.37;;
7324;SDS011;3703;48.016;7.802;2022-11-15T14:55:52;18.73;;;10.97;;
7324;SDS011;3703;48.016;7.802;2022-11-15T14:58:40;23.17;;;13.57;;
7324;SDS011;3703;48.016;7.802;2022-11-15T15:01:28;16.77;;;10.47;;
7324;SDS011;3703;48.016;7.802;2022-11-15T15:04:15;10.13;;;7.30;;
7324;SDS011;3703;48.016;7.802;2022-11-15T15:07:03;10.30;;;8.37;;
7324;SDS011;3703;48.016;7.802;2022-11-15T15:09:52;35.00;;;27.47;;
7324;SDS011;3703;48.016;7.802;2022-11-15T15:12:39;30.53;;;24.17;;
7324;SDS011;3703;48.016;7.802;2022-11-15T15:15:31;30.00;;;23.23;;
7324;SDS011;3703;48.016;7.802;2022-11-15T15:18:20;35.20;;;24.83;;
7324;SDS011;3703;48.016;7.802;2022-11-15T15:21:13;22.80;;;15.90;;
7324;SDS011;3703;48.016;7.802;2022-11-15T15:24:07;20.40;;;16.87;;
7324;SDS011;3703;48.016;7.802;2022-11-15T15:27:01;22.07;;;17.37;;
7324;SDS011;3703;48.016;7.802;2022-11-15T15:29:49;16.17;;;12.10;;
7324;SDS011;3703;48.016;7.802;2022-11-15T15:32:36;14.00;;;10.10;;
7324;SDS011;3703;48.016;7.802;2022-11-15T15:35:24;24.90;;;18.20;;
7324;SDS011;3703;48.016;7.802;2022-11-15T15:38:17;23.63;;;16.77;;
7324;SDS011;3703;48.016;7.802;2022-11-15T15:41:06;18.63;;;14.93;;
7324;SDS011;3703;48.016;7.802;2022-11-15T15:43:58;15.70;;;11.27;;
7324;SDS011;3703;48.016;7.802;2022-11-15T15:46:46;12.63;;;7.13;;
7324;SDS011;3703;48.016;7.802;2022-11-15T15:49:33;13.67;;;9.43;;
7324;SDS011;3703;48.016;7.802;2022-11-15T15:52:21;12.53;;;7.63;;
7324;SDS011;3703;48.016;7.802;2022-11-15T15:55:08;12.60;;;8.10;;
7324;SDS011;3703;48.016;7.802;2022-11-15T15:57:56;11.90;;;7.43;;
7324;SDS011;3703;48.016;7.802;2022-11-15T16:00:45;13.40;;;9.67;;
7324;SDS011;3703;48.016;7.802;2022-11-15T16:03:33;13.83;;;10.90;;
7324;SDS011;3703;48.016;7.802;2022-11-15T16:06:37;14.53;;;9.73;;
7324;SDS011;3703;48.016;7.802;2022-11-15T16:09:29;13.27;;;9.57;;
7324;SDS011;3703;48.016;7.802;2022-11-15T16:12:35;18.87;;;11.77;;
7324;SDS011;3703;48.016;7.802;2022-11-15T16:15:24;16.23;;;8.73;;
7324;SDS011;3703;48.016;7.802;2022-11-15T16:18:15;10.40;;;7.23;;
7324;SDS011;3703;48.016;7.802;2022-11-15T16:21:03;9.03;;;6.90;;
7324;SDS011;3703;48.016;7.802;2022-11-15T16:23:51;9.57;;;6.83;;
7324;SDS011;3703;48.016;7.802;2022-11-15T16:26:39;10.27;;;7.03;;
7324;SDS011;3703;48.016;7.802;2022-11-15T16:29:27;9.20;;;6.70;;
7324;SDS011;3703;48.016;7.802;2022-11-15T16:32:15;9.03;;;6.20;;
7324;SDS011;3703;48.016;7.802;2022-11-15T16:35:05;12.00;;;9.10;;
7324;SDS011;3703;48.016;7.802;2022-11-15T16:37:56;9.50;;;8.20;;
7324;SDS011;3703;48.016;7.802;2022-11-15T16:40:43;7.77;;;6.50;;
7324;SDS011;3703;48.016;7.802;2022-11-15T16:43:31;8.13;;;6.27;;
7324;SDS011;3703;48.016;7.802;2022-11-15T16:46:19;7.30;;;5.47;;
7324;SDS011;3703;48.016;7.802;2022-11-15T16:49:10;9.77;;;6.97;;
7324;SDS011;3703;48.016;7.802;2022-11-15T16:52:01;9.60;;;7.10;;
7324;SDS011;3703;48.016;7.802;2022-11-15T16:54:49;8.60;;;6.63;;
7324;SDS011;3703;48.016;7.802;2022-11-15T16:57:36;7.90;;;5.20;;
7324;SDS011;3703;48.016;7.802;2022-11-15T17:00:24;7.70;;;5.33;;
7324;SDS011;3703;48.016;7.802;2022-11-15T17:03:12;7.53;;;5.77;;
7324;SDS011;3703;48.016;7.802;2022-11-15T17:05:59;9.37;;;5.50;;
7324;SDS011;3703;48.016;7.802;2022-11-15T17:08:49;7.43;;;5.83;;
7324;SDS011;3703;48.016;7.802;2022-11-15T17:11:36;8.53;;;6.33;;
7324;SDS011;3703;48.016;7.802;2022-11-15T17:14:28;8.33;;;5.80;;
7324;SDS011;3703;48.016;7.802;2022-11-15T17:17:16;16.07;;;11.90;;
7324;SDS011;3703;48.016;7.802;2022-11-15T17:20:03;14.40;;;9.30;;
7324;SDS011;3703;48.016;7.802;2022-11-15T17:22:54;19.17;;;15.37;;
7324;SDS011;3703;48.016;7.802;2022-11-15T17:25:43;9.47;;;7.60;;
7324;SDS011;3703;48.016;7.802;2022-11-15T17:28:31;9.00;;;6.17;;
7324;SDS011;3703;48.016;7.802;2022-11-15T17:31:19;7.30;;;5.97;;
7324;SDS011;3703;48.016;7.802;2022-11-15T17:34:07;7.63;;;5.73;;
7324;SDS011;3703;48.016;7.802;2022-11-15T17:36:55;9.40;;;6.07;;
7324;SDS011;3703;48.016;7.802;2022-11-15T17:39:42;7.70;;;6.23;;
7324;SDS011;3703;48.016;7.802;2022-11-15T17:42:31;12.47;;;7.87;;
7324;SDS011;3703;48.016;7.802;2022-11-15T17:45:19;12.83;;;8.27;;
7324;SDS011;3703;48.016;7.802;2022-11-15T17:48:07;12.03;;;7.97;;
7324;SDS011;3703;48.016;7.802;2022-11-15T17:50:55;9.77;;;7.40;;
7324;SDS011;3703;48.016;7.802;2022-11-15T17:53:44;10.17;;;7.30;;
7324;SDS011;3703;48.016;7.802;2022-11-15T17:56:36;7.87;;;6.40;;
7324;SDS011;3703;48.016;7.802;2022-11-15T17:59:27;10.23;;;7.63;;
7324;SDS011;3703;48.016;7.802;2022-11-15T18:02:15;9.93;;;7.90;;